Latest Weather Observations for Warburto Point

IDS60801

Issued at 5:11 pm CDT Wednesday 28 February 2024 (issued every 10 minutes, with the page automatically refreshed every 10 minutes)

About weather observations | Map of weather stations | Latest weather observations for SA | Other Formats
Station Details ID: 022053 Name: WARBURTO POINT Lat: -34.00 Lon: 137.53 Height: 1.0 m
Data from the previous 72 hours. | See also: Recent months at Warburto Point
Date/Time
CDT
Temp
°C
App
Temp
°C
Dew
Point
°C
Rel
Hum
%
Delta-T
°C
Wind Press
QNH
hPa
Press
MSL
hPa
Rain since
9am
mm
Dir  Spd
km/h
Gust
km/h
Spd
kts
Gust
kts
28/05:00pm - - - - - SSW 30 37 16 20 - - -
28/04:30pm - - - - - SSW 32 39 17 21 - - -
28/04:00pm - - - - - SSW 24 33 13 18 - - -
28/03:30pm - - - - - S 17 20 9 11 - - -
28/03:00pm - - - - - SSW 19 24 10 13 - - -
28/02:30pm - - - - - SSW 19 24 10 13 - - -
28/02:00pm - - - - - SW 17 20 9 11 - - -
28/01:30pm - - - - - SW 20 28 11 15 - - -
28/01:00pm - - - - - WSW 22 30 12 16 - - -
28/12:30pm - - - - - W 28 35 15 19 - - -
28/12:00pm - - - - - W 28 33 15 18 - - -
28/11:30am - - - - - W 28 35 15 19 - - -
28/11:00am - - - - - WSW 26 33 14 18 - - -
28/10:30am - - - - - W 30 37 16 20 - - -
28/10:00am - - - - - W 28 33 15 18 - - -
28/09:30am - - - - - W 30 35 16 19 - - -
28/09:00am - - - - - W 30 37 16 20 - - -
28/08:30am - - - - - W 30 35 16 19 - - -
28/08:00am - - - - - W 26 32 14 17 - - -
28/07:30am - - - - - W 24 32 13 17 - - -
28/07:00am - - - - - W 30 39 16 21 - - -
28/06:30am - - - - - W 28 33 15 18 - - -
28/06:00am - - - - - W 28 35 15 19 - - -
28/05:30am - - - - - W 30 39 16 21 - - -
28/05:00am - - - - - W 32 41 17 22 - - -
28/04:30am - - - - - W 32 41 17 22 - - -
28/04:00am - - - - - NW 28 37 15 20 - - -
28/03:52am - - - - - NW 32 50 17 27 - - -
28/03:47am - - - - - N 33 50 18 27 - - -
28/03:30am - - - - - NNE 35 41 19 22 - - -
28/03:00am - - - - - NNE 37 43 20 23 - - -
28/02:30am - - - - - NNE 35 41 19 22 - - -
28/02:00am - - - - - NNE 32 35 17 19 - - -
28/01:30am - - - - - NNE 33 39 18 21 - - -
28/01:00am - - - - - NE 30 35 16 19 - - -
28/12:30am - - - - - NE 20 28 11 15 - - -
28/12:00am - - - - - NE 19 22 10 12 - - -
 
Date/Time
CDT
Temp
°C
App
Temp
°C
Dew
Point
°C
Rel
Hum
%
Delta-T
°C
Wind Press
QNH
hPa
Press
MSL
hPa
Rain since
9am
mm
Dir  Spd
km/h
Gust
km/h
Spd
kts
Gust
kts
27/11:30pm - - - - - NE 17 20 9 11 - - -
27/11:00pm - - - - - NE 20 26 11 14 - - -
27/10:30pm - - - - - NE 24 30 13 16 - - -
27/10:00pm - - - - - NE 22 26 12 14 - - -
27/09:30pm - - - - - NE 24 30 13 16 - - -
27/09:00pm - - - - - NE 22 30 12 16 - - -
27/08:30pm - - - - - NE 19 22 10 12 - - -
27/08:00pm - - - - - NE 20 24 11 13 - - -
27/07:30pm - - - - - NNE 20 26 11 14 - - -
27/07:00pm - - - - - NE 17 20 9 11 - - -
27/06:30pm - - - - - NNE 24 28 13 15 - - -
27/06:00pm - - - - - N 24 28 13 15 - - -
27/05:30pm - - - - - N 20 26 11 14 - - -
27/05:00pm - - - - - NNE 19 22 10 12 - - -
27/04:30pm - - - - - NNE 20 26 11 14 - - -
27/04:00pm - - - - - N 19 26 10 14 - - -
27/03:30pm - - - - - NNE 19 22 10 12 - - -
27/03:00pm - - - - - NNE 20 26 11 14 - - -
27/02:30pm - - - - - NNE 22 28 12 15 - - -
27/02:00pm - - - - - NNE 24 28 13 15 - - -
27/01:30pm - - - - - N 20 28 11 15 - - -
27/01:00pm - - - - - NNE 17 20 9 11 - - -
27/12:30pm - - - - - N 15 19 8 10 - - -
27/12:00pm - - - - - N 15 17 8 9 - - -
27/11:30am - - - - - NNE 15 19 8 10 - - -
27/11:00am - - - - - NNE 17 20 9 11 - - -
27/10:30am - - - - - N 19 22 10 12 - - -
27/10:00am - - - - - NNE 17 20 9 11 - - -
27/09:30am - - - - - NNE 13 15 7 8 - - -
27/09:00am - - - - - NE 13 15 7 8 - - -
27/08:30am - - - - - E 11 15 6 8 - - -
27/08:00am - - - - - E 9 11 5 6 - - -
27/07:30am - - - - - E 15 17 8 9 - - -
27/07:00am - - - - - E 15 15 8 8 - - -
27/06:30am - - - - - E 15 17 8 9 - - -
27/06:00am - - - - - E 15 17 8 9 - - -
27/05:30am - - - - - E 17 19 9 10 - - -
27/05:00am - - - - - E 17 19 9 10 - - -
27/04:30am - - - - - SSE 13 13 7 7 - - -
27/04:00am - - - - - SSE 11 11 6 6 - - -
27/03:30am - - - - - SSE 11 13 6 7 - - -
27/03:00am - - - - - SSE 9 11 5 6 - - -
27/02:30am - - - - - SSE 11 11 6 6 - - -
27/02:00am - - - - - SSE 9 13 5 7 - - -
27/01:30am - - - - - SSE 15 17 8 9 - - -
27/01:00am - - - - - SSE 15 15 8 8 - - -
27/12:30am - - - - - S 13 15 7 8 - - -
27/12:00am - - - - - S 17 20 9 11 - - -
 
Date/Time
CDT
Temp
°C
App
Temp
°C
Dew
Point
°C
Rel
Hum
%
Delta-T
°C
Wind Press
QNH
hPa
Press
MSL
hPa
Rain since
9am
mm
Dir  Spd
km/h
Gust
km/h
Spd
kts
Gust
kts
26/11:30pm - - - - - SSW 17 19 9 10 - - -
26/11:00pm - - - - - S 15 17 8 9 - - -
26/10:30pm - - - - - SE 13 15 7 8 - - -
26/10:00pm - - - - - SE 17 20 9 11 - - -
26/09:30pm - - - - - SE 20 26 11 14 - - -
26/09:00pm - - - - - SE 19 24 10 13 - - -
26/08:30pm - - - - - SE 19 24 10 13 - - -
26/08:00pm - - - - - SE 20 26 11 14 - - -
26/07:30pm - - - - - SSE 15 20 8 11 - - -
26/07:00pm - - - - - SSW 17 24 9 13 - - -
26/06:30pm - - - - - SE 13 17 7 9 - - -
26/06:00pm - - - - - SSE 15 19 8 10 - - -
26/05:30pm - - - - - SSE 17 22 9 12 - - -
26/05:00pm - - - - - S 15 19 8 10 - - -
26/04:30pm - - - - - S 11 13 6 7 - - -
26/04:00pm - - - - - SE 13 17 7 9 - - -
26/03:30pm - - - - - ESE 11 15 6 8 - - -
26/03:00pm - - - - - E 13 20 7 11 - - -
26/02:30pm - - - - - E 13 17 7 9 - - -
26/02:00pm - - - - - SSE 13 19 7 10 - - -
26/01:30pm - - - - - SSE 15 20 8 11 - - -
26/01:00pm - - - - - ESE 15 22 8 12 - - -
26/12:30pm - - - - - SE 15 20 8 11 - - -
26/12:00pm - - - - - SE 20 28 11 15 - - -
26/11:30am - - - - - ESE 24 30 13 16 - - -
26/11:00am - - - - - ESE 20 28 11 15 - - -
26/10:30am - - - - - ESE 20 28 11 15 - - -
26/10:00am - - - - - ESE 30 35 16 19 - - -
26/09:30am - - - - - ESE 30 37 16 20 - - -
26/09:00am - - - - - ESE 32 37 17 20 - - -
26/08:30am - - - - - ESE 28 37 15 20 - - -
26/08:00am - - - - - ESE 26 33 14 18 - - -
26/07:30am - - - - - ESE 20 30 11 16 - - -
26/07:00am - - - - - SE 17 28 9 15 - - -
26/06:30am - - - - - SE 20 28 11 15 - - -
26/06:00am - - - - - SE 22 28 12 15 - - -
26/05:30am - - - - - SE 26 33 14 18 - - -
26/05:00am - - - - - SE 26 33 14 18 - - -
26/04:30am - - - - - SSE 26 35 14 19 - - -
26/04:00am - - - - - SSE 26 33 14 18 - - -
26/03:30am - - - - - SSE 22 28 12 15 - - -
26/03:00am - - - - - SSE 26 32 14 17 - - -
26/02:30am - - - - - SSE 24 30 13 16 - - -
26/02:00am - - - - - SSE 26 33 14 18 - - -
26/01:30am - - - - - SSE 28 32 15 17 - - -
26/01:00am - - - - - SSE 24 32 13 17 - - -
26/12:30am - - - - - SSE 20 28 11 15 - - -
26/12:00am - - - - - SSE 24 30 13 16 - - -
 
Date/Time
CDT
Temp
°C
App
Temp
°C
Dew
Point
°C
Rel
Hum
%
Delta-T
°C
Wind Press
QNH
hPa
Press
MSL
hPa
Rain since
9am
mm
Dir  Spd
km/h
Gust
km/h
Spd
kts
Gust
kts
25/11:30pm - - - - - SSE 24 32 13 17 - - -
25/11:00pm - - - - - SSE 26 32 14 17 - - -
25/10:30pm - - - - - SSE 24 30 13 16 - - -
25/10:00pm - - - - - SSE 24 30 13 16 - - -
25/09:30pm - - - - - SSE 24 30 13 16 - - -
25/09:00pm - - - - - ESE 17 22 9 12 - - -
25/08:30pm - - - - - ESE 20 28 11 15 - - -
25/08:00pm - - - - - SE 26 33 14 18 - - -
25/07:30pm - - - - - SSW 24 28 13 15 - - -
25/07:00pm - - - - - SW 24 30 13 16 - - -
25/06:30pm - - - - - SW 17 24 9 13 - - -
25/06:00pm - - - - - SSW 20 26 11 14 - - -
25/05:30pm - - - - - SW 20 28 11 15 - - -

Other formats

Comma delimited format used in spreadsheet applications
http://www.bom.gov.au/fwo/IDS60801/IDS60801.94666.axf

JavaScript Object Notation format (JSON) in row-major order
http://www.bom.gov.au/fwo/IDS60801/IDS60801.94666.json

Data quality

Most of these data are generated automatically and are frequently updated. Quality checks on data are not normally performed. It is possible for incorrect values to appear. Refer to information at About Latest Weather Observations and please check the disclaimer before using these data.